Time,TemperatureF,DewpointF,PressureIn,WindDirection,WindDirectionDegrees,WindSpeedMPH,WindSpeedGustMPH,Humidity,HourlyPrecipIn,Conditions,Clouds,dailyrainin,SolarRadiationWatts/m^2,SoftwareType,DateUTC
2013-01-23 00:22:00,17.0,9.0,-100.00,NNW,340,2.0,4.0,70,0.00,,,0.02,0.000000,,2013-01-23 07:22:00,
2013-01-23 00:33:00,17.0,9.0,-100.00,NNW,340,2.0,4.0,70,0.00,,,0.02,0.000000,,2013-01-23 07:33:00,
2013-01-23 00:42:00,17.0,9.0,-100.00,NNW,340,2.0,4.0,70,0.00,,,0.02,0.000000,,2013-01-23 07:42:00,
2013-01-23 00:52:00,17.0,9.0,-100.00,NNW,340,2.0,4.0,70,0.00,,,0.02,0.000000,,2013-01-23 07:52:00,
2013-01-23 01:22:00,16.0,8.0,-100.00,NNW,336,1.0,5.0,71,0.00,,,0.02,0.000000,,2013-01-23 08:22:00,
2013-01-23 01:33:00,16.0,8.0,-100.00,NNW,336,1.0,5.0,71,0.00,,,0.02,0.000000,,2013-01-23 08:33:00,
2013-01-23 01:42:00,16.0,8.0,-100.00,NNW,336,1.0,5.0,71,0.00,,,0.02,0.000000,,2013-01-23 08:42:00,
2013-01-23 01:52:00,16.0,8.0,-100.00,NNW,336,1.0,5.0,71,0.00,,,0.02,0.000000,,2013-01-23 08:52:00,
2013-01-23 02:22:00,14.0,7.0,-100.00,NW,325,2.0,3.0,73,0.00,,,0.02,0.000000,,2013-01-23 09:22:00,
2013-01-23 02:33:00,14.0,7.0,-100.00,NW,325,2.0,3.0,73,0.00,,,0.02,0.000000,,2013-01-23 09:33:00,
2013-01-23 02:43:00,14.0,7.0,-100.00,NW,325,2.0,3.0,73,0.00,,,0.02,0.000000,,2013-01-23 09:43:00,
2013-01-23 02:52:00,14.0,7.0,-100.00,NW,325,2.0,3.0,73,0.00,,,0.02,0.000000,,2013-01-23 09:52:00,
2013-01-23 03:23:00,14.0,6.0,-100.00,NNW,333,2.0,4.0,71,0.00,,,0.02,0.000000,,2013-01-23 10:23:00,
2013-01-23 03:33:00,14.0,6.0,-100.00,NNW,333,2.0,4.0,71,0.00,,,0.02,0.000000,,2013-01-23 10:33:00,
2013-01-23 03:43:00,14.0,6.0,-100.00,NNW,333,2.0,4.0,71,0.00,,,0.02,0.000000,,2013-01-23 10:43:00,
2013-01-23 03:52:00,14.0,6.0,-100.00,NNW,333,2.0,4.0,71,0.00,,,0.02,0.000000,,2013-01-23 10:52:00,
2013-01-23 04:23:00,14.0,6.0,-100.00,NNW,337,3.0,4.0,71,0.00,,,0.02,0.000000,,2013-01-23 11:23:00,
2013-01-23 04:33:00,14.0,6.0,-100.00,NNW,337,3.0,4.0,71,0.00,,,0.02,0.000000,,2013-01-23 11:33:00,
2013-01-23 04:43:00,14.0,6.0,-100.00,NNW,337,3.0,4.0,71,0.00,,,0.02,0.000000,,2013-01-23 11:43:00,
2013-01-23 04:53:00,14.0,6.0,-100.00,NNW,337,3.0,4.0,71,0.00,,,0.02,0.000000,,2013-01-23 11:53:00,
2013-01-23 05:22:00,14.0,6.0,-100.00,NNW,334,1.0,4.0,71,0.00,,,0.02,0.000000,,2013-01-23 12:22:00,
2013-01-23 05:33:00,14.0,6.0,-100.00,NNW,334,1.0,4.0,71,0.00,,,0.02,0.000000,,2013-01-23 12:33:00,
2013-01-23 05:43:00,14.0,6.0,-100.00,NNW,334,1.0,4.0,71,0.00,,,0.02,0.000000,,2013-01-23 12:43:00,
2013-01-23 05:52:00,14.0,6.0,-100.00,NNW,334,1.0,4.0,71,0.00,,,0.02,0.000000,,2013-01-23 12:52:00,
2013-01-23 06:23:00,15.0,7.0,-100.00,NNW,327,3.0,4.0,70,0.00,,,0.02,0.000000,,2013-01-23 13:23:00,
2013-01-23 06:33:00,15.0,7.0,-100.00,NNW,327,3.0,4.0,70,0.00,,,0.02,0.000000,,2013-01-23 13:33:00,
2013-01-23 06:42:00,15.0,7.0,-100.00,NNW,327,3.0,4.0,70,0.00,,,0.02,0.000000,,2013-01-23 13:42:00,
2013-01-23 06:52:00,15.0,7.0,-100.00,NNW,327,3.0,4.0,70,0.00,,,0.02,0.000000,,2013-01-23 13:52:00,
2013-01-23 07:23:00,13.0,6.0,-100.00,NNW,331,2.0,3.0,74,0.00,,,0.02,0.000000,,2013-01-23 14:23:00,
2013-01-23 07:33:00,13.0,6.0,-100.00,NNW,331,2.0,3.0,74,0.00,,,0.02,0.000000,,2013-01-23 14:33:00,
2013-01-23 07:43:00,13.0,6.0,-100.00,NNW,331,2.0,3.0,74,0.00,,,0.02,0.000000,,2013-01-23 14:43:00,
2013-01-23 07:53:00,13.0,6.0,-100.00,NNW,331,2.0,3.0,74,0.00,,,0.02,0.000000,,2013-01-23 14:53:00,
2013-01-23 08:23:00,14.0,8.0,-100.00,SSW,203,1.0,4.0,75,0.00,,,0.02,11.000000,,2013-01-23 15:23:00,
2013-01-23 08:33:00,14.0,8.0,-100.00,SSW,203,1.0,4.0,75,0.00,,,0.02,11.000000,,2013-01-23 15:33:00,
2013-01-23 08:43:00,14.0,8.0,-100.00,SSW,203,1.0,4.0,75,0.00,,,0.02,11.000000,,2013-01-23 15:43:00,
2013-01-23 08:53:00,14.0,8.0,-100.00,SSW,203,1.0,4.0,75,0.00,,,0.02,11.000000,,2013-01-23 15:53:00,
2013-01-23 09:23:00,19.0,10.0,-100.00,South,179,0.0,3.0,66,0.00,,,0.02,69.000000,,2013-01-23 16:23:00,
2013-01-23 09:33:00,19.0,10.0,-100.00,South,179,0.0,3.0,66,0.00,,,0.02,69.000000,,2013-01-23 16:33:00,
2013-01-23 09:42:00,19.0,10.0,-100.00,South,179,0.0,3.0,66,0.00,,,0.02,69.000000,,2013-01-23 16:42:00,
2013-01-23 09:52:00,19.0,10.0,-100.00,South,179,0.0,3.0,66,0.00,,,0.02,69.000000,,2013-01-23 16:52:00,
2013-01-23 10:23:00,23.0,13.0,-100.00,SE,146,4.0,6.0,65,0.00,,,0.01,167.000000,,2013-01-23 17:23:00,
2013-01-23 10:33:00,23.0,13.0,-100.00,SE,146,4.0,6.0,65,0.00,,,0.01,167.000000,,2013-01-23 17:33:00,
2013-01-23 10:42:00,23.0,13.0,-100.00,SE,146,4.0,6.0,65,0.00,,,0.01,167.000000,,2013-01-23 17:42:00,
2013-01-23 10:52:00,23.0,13.0,-100.00,SE,146,4.0,6.0,65,0.00,,,0.01,167.000000,,2013-01-23 17:52:00,
2013-01-23 11:23:00,25.0,13.0,-100.00,SSE,151,7.0,10.0,60,0.00,,,0.00,248.000000,,2013-01-23 18:23:00,
2013-01-23 11:33:00,25.0,13.0,-100.00,SSE,151,7.0,10.0,60,0.00,,,0.00,248.000000,,2013-01-23 18:33:00,
2013-01-23 11:43:00,25.0,13.0,-100.00,SSE,151,7.0,10.0,60,0.00,,,0.00,248.000000,,2013-01-23 18:43:00,
2013-01-23 11:53:00,25.0,13.0,-100.00,SSE,151,7.0,10.0,60,0.00,,,0.00,248.000000,,2013-01-23 18:53:00,
2013-01-23 12:23:00,25.0,13.0,-100.00,SE,144,7.0,11.0,60,0.00,,,0.00,197.000000,,2013-01-23 19:23:00,
2013-01-23 12:33:00,25.0,13.0,-100.00,SE,144,7.0,11.0,60,0.00,,,0.00,197.000000,,2013-01-23 19:33:00,
2013-01-23 12:43:00,25.0,13.0,-100.00,SE,144,7.0,11.0,60,0.00,,,0.00,197.000000,,2013-01-23 19:43:00,
2013-01-23 12:53:00,25.0,13.0,-100.00,SE,144,7.0,11.0,60,0.00,,,0.00,197.000000,,2013-01-23 19:53:00,
2013-01-23 13:23:00,25.0,13.0,-100.00,SSE,147,7.0,10.0,59,0.00,,,0.00,226.000000,,2013-01-23 20:23:00,
2013-01-23 13:33:00,25.0,13.0,-100.00,SSE,147,7.0,10.0,59,0.00,,,0.00,226.000000,,2013-01-23 20:33:00,
2013-01-23 13:43:00,25.0,13.0,-100.00,SSE,147,7.0,10.0,59,0.00,,,0.00,226.000000,,2013-01-23 20:43:00,
2013-01-23 13:53:00,25.0,13.0,-100.00,SSE,147,7.0,10.0,59,0.00,,,0.00,226.000000,,2013-01-23 20:53:00,
2013-01-23 14:23:00,25.0,13.0,-100.00,SSE,149,8.0,10.0,61,0.00,,,0.00,204.000000,,2013-01-23 21:23:00,
2013-01-23 14:33:00,25.0,13.0,-100.00,SSE,149,8.0,10.0,61,0.00,,,0.00,204.000000,,2013-01-23 21:33:00,
2013-01-23 14:43:00,25.0,13.0,-100.00,SSE,149,8.0,10.0,61,0.00,,,0.00,204.000000,,2013-01-23 21:43:00,
2013-01-23 14:52:00,25.0,13.0,-100.00,SSE,149,8.0,10.0,61,0.00,,,0.00,204.000000,,2013-01-23 21:52:00,
2013-01-23 15:23:00,23.0,13.0,-100.00,SSE,156,8.0,11.0,65,0.00,,,0.00,149.000000,,2013-01-23 22:23:00,
2013-01-23 15:33:00,23.0,13.0,-100.00,SSE,156,8.0,11.0,65,0.00,,,0.00,149.000000,,2013-01-23 22:33:00,
2013-01-23 15:42:00,23.0,13.0,-100.00,SSE,156,8.0,11.0,65,0.00,,,0.00,149.000000,,2013-01-23 22:42:00,
2013-01-23 15:52:00,23.0,13.0,-100.00,SSE,156,8.0,11.0,65,0.00,,,0.00,149.000000,,2013-01-23 22:52:00,
2013-01-23 16:23:00,20.0,11.0,-100.00,SSE,148,8.0,12.0,69,0.00,,,0.00,90.000000,,2013-01-23 23:23:00,
2013-01-23 16:33:00,20.0,11.0,-100.00,SSE,148,8.0,12.0,69,0.00,,,0.00,90.000000,,2013-01-23 23:33:00,
2013-01-23 16:43:00,20.0,11.0,-100.00,SSE,148,8.0,12.0,69,0.00,,,0.00,90.000000,,2013-01-23 23:43:00,
2013-01-23 16:53:00,20.0,11.0,-100.00,SSE,148,8.0,12.0,69,0.00,,,0.00,90.000000,,2013-01-23 23:53:00,
2013-01-23 17:22:00,16.0,10.0,-100.00,SSE,155,7.0,10.0,78,0.00,,,0.00,19.000000,,2013-01-24 00:22:00,
2013-01-23 17:32:00,16.0,10.0,-100.00,SSE,155,7.0,10.0,78,0.00,,,0.00,19.000000,,2013-01-24 00:32:00,
2013-01-23 17:42:00,16.0,10.0,-100.00,SSE,155,7.0,10.0,78,0.00,,,0.00,19.000000,,2013-01-24 00:42:00,
2013-01-23 17:53:00,16.0,10.0,-100.00,SSE,155,7.0,10.0,78,0.00,,,0.00,19.000000,,2013-01-24 00:53:00,
2013-01-23 18:23:00,15.0,11.0,-100.00,SSE,161,6.0,11.0,82,0.00,,,0.00,0.000000,,2013-01-24 01:23:00,
2013-01-23 18:33:00,15.0,11.0,-100.00,SSE,161,6.0,11.0,82,0.00,,,0.00,0.000000,,2013-01-24 01:33:00,
2013-01-23 18:42:00,15.0,11.0,-100.00,SSE,161,6.0,11.0,82,0.00,,,0.00,0.000000,,2013-01-24 01:42:00,
2013-01-23 18:52:00,15.0,11.0,-100.00,SSE,161,6.0,11.0,82,0.00,,,0.00,0.000000,,2013-01-24 01:52:00,
2013-01-23 19:22:00,13.0,9.0,-100.00,SSE,155,7.0,11.0,82,0.00,,,0.00,0.000000,,2013-01-24 02:22:00,
2013-01-23 19:33:00,13.0,9.0,-100.00,SSE,155,7.0,11.0,82,0.00,,,0.00,0.000000,,2013-01-24 02:33:00,
2013-01-23 19:42:00,13.0,9.0,-100.00,SSE,155,7.0,11.0,82,0.00,,,0.00,0.000000,,2013-01-24 02:42:00,
2013-01-23 19:52:00,13.0,9.0,-100.00,SSE,155,7.0,11.0,82,0.00,,,0.00,0.000000,,2013-01-24 02:52:00,
2013-01-23 20:22:00,13.0,9.0,-100.00,SSE,157,7.0,12.0,83,0.00,,,0.00,0.000000,,2013-01-24 03:22:00,
2013-01-23 20:33:00,13.0,9.0,-100.00,SSE,157,7.0,12.0,83,0.00,,,0.00,0.000000,,2013-01-24 03:33:00,
2013-01-23 20:43:00,13.0,9.0,-100.00,SSE,157,7.0,12.0,83,0.00,,,0.00,0.000000,,2013-01-24 03:43:00,
2013-01-23 20:52:00,13.0,9.0,-100.00,SSE,157,7.0,12.0,83,0.00,,,0.00,0.000000,,2013-01-24 03:52:00,
2013-01-23 21:22:00,12.0,8.0,-100.00,SSE,150,7.0,11.0,84,0.00,,,0.00,0.000000,,2013-01-24 04:22:00,
2013-01-23 21:32:00,12.0,8.0,-100.00,SSE,150,7.0,11.0,84,0.00,,,0.00,0.000000,,2013-01-24 04:32:00,
2013-01-23 21:42:00,12.0,8.0,-100.00,SSE,150,7.0,11.0,84,0.00,,,0.00,0.000000,,2013-01-24 04:42:00,
2013-01-23 21:52:00,12.0,8.0,-100.00,SSE,150,7.0,11.0,84,0.00,,,0.00,0.000000,,2013-01-24 04:52:00,
2013-01-23 22:22:00,12.0,8.0,-100.00,SSE,167,7.0,11.0,83,0.00,,,0.00,0.000000,,2013-01-24 05:22:00,
2013-01-23 22:33:00,12.0,8.0,-100.00,SSE,167,7.0,11.0,83,0.00,,,0.00,0.000000,,2013-01-24 05:33:00,
2013-01-23 22:42:00,12.0,8.0,-100.00,SSE,167,7.0,11.0,83,0.00,,,0.00,0.000000,,2013-01-24 05:42:00,
2013-01-23 22:52:00,12.0,8.0,-100.00,SSE,167,7.0,11.0,83,0.00,,,0.00,0.000000,,2013-01-24 05:52:00,
2013-01-23 23:22:00,13.0,9.0,-100.00,South,175,5.0,10.0,82,0.00,,,-99.99,0.000000,,2013-01-24 06:22:00,
2013-01-23 23:32:00,13.0,9.0,-100.00,South,175,5.0,10.0,82,0.00,,,-99.99,0.000000,,2013-01-24 06:32:00,
2013-01-23 23:42:00,13.0,9.0,-100.00,South,175,5.0,10.0,82,0.00,,,-99.99,0.000000,,2013-01-24 06:42:00,
2013-01-23 23:52:00,13.0,9.0,-100.00,South,175,5.0,10.0,82,0.00,,,-99.99,0.000000,,2013-01-24 06:52:00,